Terminal Aerodrome Forecast
Issued by NWS Louisville, KY

Home | Current Version | Previous Version | Text Only | Print | Product List | Glossary On
Versions: 1 2 3 4 5 6 7 8 9 10 11 12 13 14 15
989
FTUS43 KLMK 031133
TAFSDF
TAF
KSDF 031133Z 0312/0418 24012G26KT P6SM SKC
     FM032100 28009KT P6SM BKN040=

USA.gov is the U.S. government's official web portal to all federal, state and local government web resources and services.